sensor_id;sensor_type;location;lat;lon;timestamp;P1;durP1;ratioP1;P2;durP2;ratioP2
82705;SDS011;72428;41.978;21.464;2024-03-06T00:00:59;45.72;;;25.38;;
82705;SDS011;72428;41.978;21.464;2024-03-06T00:03:25;46.13;;;25.02;;
82705;SDS011;72428;41.978;21.464;2024-03-06T00:05:51;47.47;;;24.92;;
82705;SDS011;72428;41.978;21.464;2024-03-06T00:08:17;43.13;;;25.13;;
82705;SDS011;72428;41.978;21.464;2024-03-06T00:10:43;42.97;;;24.23;;
82705;SDS011;72428;41.978;21.464;2024-03-06T00:13:10;43.15;;;24.42;;
82705;SDS011;72428;41.978;21.464;2024-03-06T00:15:36;47.05;;;25.52;;
82705;SDS011;72428;41.978;21.464;2024-03-06T00:18:02;45.85;;;24.20;;
82705;SDS011;72428;41.978;21.464;2024-03-06T00:20:30;42.53;;;23.98;;
82705;SDS011;72428;41.978;21.464;2024-03-06T00:22:56;43.30;;;21.67;;
82705;SDS011;72428;41.978;21.464;2024-03-06T00:25:24;38.33;;;23.55;;
82705;SDS011;72428;41.978;21.464;2024-03-06T00:27:50;41.83;;;25.45;;
82705;SDS011;72428;41.978;21.464;2024-03-06T00:30:16;45.40;;;24.77;;
82705;SDS011;72428;41.978;21.464;2024-03-06T00:32:43;42.58;;;24.17;;
82705;SDS011;72428;41.978;21.464;2024-03-06T00:35:09;43.15;;;25.20;;
82705;SDS011;72428;41.978;21.464;2024-03-06T00:37:37;46.22;;;27.00;;
82705;SDS011;72428;41.978;21.464;2024-03-06T00:40:03;50.65;;;27.75;;
82705;SDS011;72428;41.978;21.464;2024-03-06T00:42:29;46.80;;;23.70;;
82705;SDS011;72428;41.978;21.464;2024-03-06T00:44:55;53.60;;;26.63;;
82705;SDS011;72428;41.978;21.464;2024-03-06T00:47:21;45.47;;;27.73;;
82705;SDS011;72428;41.978;21.464;2024-03-06T00:49:47;46.47;;;25.75;;
82705;SDS011;72428;41.978;21.464;2024-03-06T00:52:14;43.80;;;25.38;;
82705;SDS011;72428;41.978;21.464;2024-03-06T00:54:40;43.90;;;27.83;;
82705;SDS011;72428;41.978;21.464;2024-03-06T00:57:06;41.47;;;25.25;;
82705;SDS011;72428;41.978;21.464;2024-03-06T00:59:32;44.55;;;26.85;;
82705;SDS011;72428;41.978;21.464;2024-03-06T01:01:58;40.10;;;24.58;;
82705;SDS011;72428;41.978;21.464;2024-03-06T01:04:24;42.58;;;24.25;;
82705;SDS011;72428;41.978;21.464;2024-03-06T01:06:50;46.28;;;26.13;;
82705;SDS011;72428;41.978;21.464;2024-03-06T01:09:16;41.80;;;24.45;;
82705;SDS011;72428;41.978;21.464;2024-03-06T01:11:43;49.90;;;26.50;;
82705;SDS011;72428;41.978;21.464;2024-03-06T01:14:11;40.47;;;25.02;;
82705;SDS011;72428;41.978;21.464;2024-03-06T01:16:38;51.88;;;26.35;;
82705;SDS011;72428;41.978;21.464;2024-03-06T01:19:04;52.90;;;26.90;;
82705;SDS011;72428;41.978;21.464;2024-03-06T01:21:30;50.45;;;26.92;;
82705;SDS011;72428;41.978;21.464;2024-03-06T01:23:56;49.33;;;27.20;;
82705;SDS011;72428;41.978;21.464;2024-03-06T01:26:22;48.40;;;27.05;;
82705;SDS011;72428;41.978;21.464;2024-03-06T01:28:48;49.40;;;25.95;;
82705;SDS011;72428;41.978;21.464;2024-03-06T01:31:14;53.55;;;29.02;;
82705;SDS011;72428;41.978;21.464;2024-03-06T01:33:41;49.70;;;26.42;;
82705;SDS011;72428;41.978;21.464;2024-03-06T01:36:07;46.65;;;26.25;;
82705;SDS011;72428;41.978;21.464;2024-03-06T01:38:33;47.95;;;28.17;;
82705;SDS011;72428;41.978;21.464;2024-03-06T01:40:59;58.25;;;29.40;;
82705;SDS011;72428;41.978;21.464;2024-03-06T01:43:25;43.40;;;25.15;;
82705;SDS011;72428;41.978;21.464;2024-03-06T01:45:52;42.40;;;26.02;;
82705;SDS011;72428;41.978;21.464;2024-03-06T01:48:21;43.97;;;25.55;;
82705;SDS011;72428;41.978;21.464;2024-03-06T01:50:50;41.35;;;22.63;;
82705;SDS011;72428;41.978;21.464;2024-03-06T01:53:16;42.00;;;23.92;;
82705;SDS011;72428;41.978;21.464;2024-03-06T01:55:43;44.15;;;23.67;;
82705;SDS011;72428;41.978;21.464;2024-03-06T01:58:10;42.80;;;25.60;;
82705;SDS011;72428;41.978;21.464;2024-03-06T02:00:36;52.92;;;28.80;;
82705;SDS011;72428;41.978;21.464;2024-03-06T02:03:02;55.60;;;31.55;;
82705;SDS011;72428;41.978;21.464;2024-03-06T02:05:29;60.47;;;31.95;;
82705;SDS011;72428;41.978;21.464;2024-03-06T02:07:57;44.58;;;24.70;;
82705;SDS011;72428;41.978;21.464;2024-03-06T02:10:24;46.50;;;27.13;;
82705;SDS011;72428;41.978;21.464;2024-03-06T02:12:51;54.08;;;26.05;;
82705;SDS011;72428;41.978;21.464;2024-03-06T02:15:18;48.72;;;27.52;;
82705;SDS011;72428;41.978;21.464;2024-03-06T02:17:44;63.75;;;29.85;;
82705;SDS011;72428;41.978;21.464;2024-03-06T02:20:11;54.20;;;31.10;;
82705;SDS011;72428;41.978;21.464;2024-03-06T02:22:39;55.22;;;30.65;;
82705;SDS011;72428;41.978;21.464;2024-03-06T02:25:06;47.45;;;24.75;;
82705;SDS011;72428;41.978;21.464;2024-03-06T02:27:32;39.97;;;21.75;;
82705;SDS011;72428;41.978;21.464;2024-03-06T02:29:58;32.90;;;18.30;;
82705;SDS011;72428;41.978;21.464;2024-03-06T02:32:24;35.15;;;19.55;;
82705;SDS011;72428;41.978;21.464;2024-03-06T02:34:50;35.72;;;20.67;;
82705;SDS011;72428;41.978;21.464;2024-03-06T02:37:17;41.97;;;20.60;;
82705;SDS011;72428;41.978;21.464;2024-03-06T02:39:43;40.20;;;20.52;;
82705;SDS011;72428;41.978;21.464;2024-03-06T02:42:09;43.10;;;22.67;;
82705;SDS011;72428;41.978;21.464;2024-03-06T02:44:35;37.00;;;21.40;;
82705;SDS011;72428;41.978;21.464;2024-03-06T02:47:01;37.70;;;21.25;;
82705;SDS011;72428;41.978;21.464;2024-03-06T02:49:27;40.78;;;22.48;;
82705;SDS011;72428;41.978;21.464;2024-03-06T02:51:53;40.33;;;21.30;;
82705;SDS011;72428;41.978;21.464;2024-03-06T02:54:20;39.08;;;23.60;;
82705;SDS011;72428;41.978;21.464;2024-03-06T02:56:46;37.42;;;22.05;;
82705;SDS011;72428;41.978;21.464;2024-03-06T02:59:12;33.97;;;20.42;;
82705;SDS011;72428;41.978;21.464;2024-03-06T03:01:38;40.55;;;22.17;;
82705;SDS011;72428;41.978;21.464;2024-03-06T03:04:04;40.75;;;21.25;;
82705;SDS011;72428;41.978;21.464;2024-03-06T03:06:31;53.72;;;21.42;;
82705;SDS011;72428;41.978;21.464;2024-03-06T03:08:57;40.05;;;21.70;;
82705;SDS011;72428;41.978;21.464;2024-03-06T03:11:23;44.35;;;22.00;;
82705;SDS011;72428;41.978;21.464;2024-03-06T03:13:50;48.55;;;26.25;;
82705;SDS011;72428;41.978;21.464;2024-03-06T03:16:16;41.42;;;26.60;;
82705;SDS011;72428;41.978;21.464;2024-03-06T03:18:43;40.05;;;23.70;;
82705;SDS011;72428;41.978;21.464;2024-03-06T03:21:09;46.22;;;24.92;;
82705;SDS011;72428;41.978;21.464;2024-03-06T03:23:35;44.58;;;23.73;;
82705;SDS011;72428;41.978;21.464;2024-03-06T03:26:02;44.42;;;23.75;;
82705;SDS011;72428;41.978;21.464;2024-03-06T03:28:31;43.13;;;22.95;;
82705;SDS011;72428;41.978;21.464;2024-03-06T03:30:58;47.50;;;23.88;;
82705;SDS011;72428;41.978;21.464;2024-03-06T03:33:24;50.95;;;27.33;;
82705;SDS011;72428;41.978;21.464;2024-03-06T03:35:50;49.53;;;26.42;;
82705;SDS011;72428;41.978;21.464;2024-03-06T03:38:16;48.55;;;24.13;;
82705;SDS011;72428;41.978;21.464;2024-03-06T03:40:42;41.90;;;25.35;;
82705;SDS011;72428;41.978;21.464;2024-03-06T03:43:09;46.40;;;26.15;;
82705;SDS011;72428;41.978;21.464;2024-03-06T03:45:35;39.90;;;23.20;;
82705;SDS011;72428;41.978;21.464;2024-03-06T03:48:01;39.35;;;22.83;;
82705;SDS011;72428;41.978;21.464;2024-03-06T03:50:28;40.58;;;24.52;;
82705;SDS011;72428;41.978;21.464;2024-03-06T03:52:54;48.83;;;24.70;;
82705;SDS011;72428;41.978;21.464;2024-03-06T03:55:23;43.65;;;22.50;;
82705;SDS011;72428;41.978;21.464;2024-03-06T03:57:49;48.90;;;27.30;;
82705;SDS011;72428;41.978;21.464;2024-03-06T04:00:17;50.08;;;26.77;;
82705;SDS011;72428;41.978;21.464;2024-03-06T04:02:43;49.95;;;26.20;;
82705;SDS011;72428;41.978;21.464;2024-03-06T04:05:09;46.17;;;27.15;;
82705;SDS011;72428;41.978;21.464;2024-03-06T04:07:36;48.35;;;23.23;;
82705;SDS011;72428;41.978;21.464;2024-03-06T04:10:02;45.25;;;24.98;;
82705;SDS011;72428;41.978;21.464;2024-03-06T04:12:29;45.75;;;22.20;;
82705;SDS011;72428;41.978;21.464;2024-03-06T04:14:55;44.17;;;24.20;;
82705;SDS011;72428;41.978;21.464;2024-03-06T04:17:22;39.90;;;23.85;;
82705;SDS011;72428;41.978;21.464;2024-03-06T04:19:48;44.53;;;24.15;;
82705;SDS011;72428;41.978;21.464;2024-03-06T04:22:14;41.30;;;23.70;;
82705;SDS011;72428;41.978;21.464;2024-03-06T04:24:41;49.42;;;23.38;;
82705;SDS011;72428;41.978;21.464;2024-03-06T04:27:07;48.00;;;22.15;;
82705;SDS011;72428;41.978;21.464;2024-03-06T04:29:33;44.25;;;22.63;;
82705;SDS011;72428;41.978;21.464;2024-03-06T04:32:00;43.30;;;24.15;;
82705;SDS011;72428;41.978;21.464;2024-03-06T04:34:26;45.40;;;22.95;;
82705;SDS011;72428;41.978;21.464;2024-03-06T04:36:52;41.35;;;23.77;;
82705;SDS011;72428;41.978;21.464;2024-03-06T04:39:18;45.42;;;28.13;;
82705;SDS011;72428;41.978;21.464;2024-03-06T04:41:44;50.70;;;26.08;;
82705;SDS011;72428;41.978;21.464;2024-03-06T04:44:10;51.55;;;28.00;;
82705;SDS011;72428;41.978;21.464;2024-03-06T04:46:36;51.70;;;25.98;;
82705;SDS011;72428;41.978;21.464;2024-03-06T04:49:02;55.17;;;26.80;;
82705;SDS011;72428;41.978;21.464;2024-03-06T04:51:28;50.92;;;28.05;;
82705;SDS011;72428;41.978;21.464;2024-03-06T04:53:55;46.75;;;27.83;;
82705;SDS011;72428;41.978;21.464;2024-03-06T04:56:21;48.50;;;26.17;;
82705;SDS011;72428;41.978;21.464;2024-03-06T04:58:47;50.65;;;26.40;;
82705;SDS011;72428;41.978;21.464;2024-03-06T05:01:13;42.70;;;26.35;;
82705;SDS011;72428;41.978;21.464;2024-03-06T05:03:39;46.83;;;26.27;;
82705;SDS011;72428;41.978;21.464;2024-03-06T05:06:05;51.70;;;27.38;;
82705;SDS011;72428;41.978;21.464;2024-03-06T05:08:32;111.82;;;33.00;;
82705;SDS011;72428;41.978;21.464;2024-03-06T05:11:01;52.38;;;27.73;;
82705;SDS011;72428;41.978;21.464;2024-03-06T05:13:27;49.13;;;27.30;;
82705;SDS011;72428;41.978;21.464;2024-03-06T05:15:53;50.42;;;29.27;;
82705;SDS011;72428;41.978;21.464;2024-03-06T05:18:20;52.20;;;27.05;;
82705;SDS011;72428;41.978;21.464;2024-03-06T05:20:46;50.33;;;30.30;;
82705;SDS011;72428;41.978;21.464;2024-03-06T05:23:12;60.10;;;29.60;;
82705;SDS011;72428;41.978;21.464;2024-03-06T05:25:39;55.17;;;30.25;;
82705;SDS011;72428;41.978;21.464;2024-03-06T05:28:06;55.90;;;30.60;;
82705;SDS011;72428;41.978;21.464;2024-03-06T05:30:32;51.00;;;31.02;;
82705;SDS011;72428;41.978;21.464;2024-03-06T05:32:58;49.60;;;29.73;;
82705;SDS011;72428;41.978;21.464;2024-03-06T05:35:24;52.58;;;31.35;;
82705;SDS011;72428;41.978;21.464;2024-03-06T05:37:50;48.10;;;27.83;;
82705;SDS011;72428;41.978;21.464;2024-03-06T05:40:16;59.63;;;33.33;;
82705;SDS011;72428;41.978;21.464;2024-03-06T05:42:42;52.28;;;31.35;;
82705;SDS011;72428;41.978;21.464;2024-03-06T05:45:08;47.47;;;28.05;;
82705;SDS011;72428;41.978;21.464;2024-03-06T05:47:37;56.85;;;28.10;;
82705;SDS011;72428;41.978;21.464;2024-03-06T05:50:05;57.25;;;29.35;;
82705;SDS011;72428;41.978;21.464;2024-03-06T05:52:31;51.60;;;28.42;;
82705;SDS011;72428;41.978;21.464;2024-03-06T05:54:57;63.33;;;29.85;;
82705;SDS011;72428;41.978;21.464;2024-03-06T05:57:23;58.50;;;27.02;;
82705;SDS011;72428;41.978;21.464;2024-03-06T05:59:50;62.35;;;32.70;;
82705;SDS011;72428;41.978;21.464;2024-03-06T06:02:16;71.38;;;32.67;;
82705;SDS011;72428;41.978;21.464;2024-03-06T06:04:43;61.42;;;33.85;;
82705;SDS011;72428;41.978;21.464;2024-03-06T06:07:09;59.92;;;31.63;;
82705;SDS011;72428;41.978;21.464;2024-03-06T06:09:35;51.90;;;30.00;;
82705;SDS011;72428;41.978;21.464;2024-03-06T06:12:01;54.63;;;30.88;;
82705;SDS011;72428;41.978;21.464;2024-03-06T06:14:28;52.47;;;29.67;;
82705;SDS011;72428;41.978;21.464;2024-03-06T06:16:55;43.13;;;24.15;;
82705;SDS011;72428;41.978;21.464;2024-03-06T06:19:21;40.92;;;24.13;;
82705;SDS011;72428;41.978;21.464;2024-03-06T06:21:47;48.97;;;28.20;;
82705;SDS011;72428;41.978;21.464;2024-03-06T06:24:13;38.40;;;22.67;;
82705;SDS011;72428;41.978;21.464;2024-03-06T06:26:39;51.83;;;31.55;;
82705;SDS011;72428;41.978;21.464;2024-03-06T06:29:07;32.03;;;18.00;;
82705;SDS011;72428;41.978;21.464;2024-03-06T06:31:33;33.97;;;16.33;;
82705;SDS011;72428;41.978;21.464;2024-03-06T06:34:00;26.77;;;15.30;;
82705;SDS011;72428;41.978;21.464;2024-03-06T06:36:26;31.35;;;17.70;;
82705;SDS011;72428;41.978;21.464;2024-03-06T06:38:52;32.05;;;18.15;;
82705;SDS011;72428;41.978;21.464;2024-03-06T06:41:19;29.88;;;17.52;;
82705;SDS011;72428;41.978;21.464;2024-03-06T06:43:45;28.55;;;16.08;;
82705;SDS011;72428;41.978;21.464;2024-03-06T06:46:11;31.23;;;17.00;;
82705;SDS011;72428;41.978;21.464;2024-03-06T06:48:38;32.60;;;18.55;;
82705;SDS011;72428;41.978;21.464;2024-03-06T06:51:04;35.58;;;18.15;;
82705;SDS011;72428;41.978;21.464;2024-03-06T06:53:30;30.40;;;16.55;;
82705;SDS011;72428;41.978;21.464;2024-03-06T06:55:56;31.95;;;16.35;;
82705;SDS011;72428;41.978;21.464;2024-03-06T06:58:23;29.25;;;16.95;;
82705;SDS011;72428;41.978;21.464;2024-03-06T07:00:49;29.45;;;15.45;;
82705;SDS011;72428;41.978;21.464;2024-03-06T07:03:15;27.88;;;16.17;;
82705;SDS011;72428;41.978;21.464;2024-03-06T07:05:41;32.10;;;17.70;;
82705;SDS011;72428;41.978;21.464;2024-03-06T07:08:08;33.38;;;17.73;;
82705;SDS011;72428;41.978;21.464;2024-03-06T07:10:37;32.05;;;15.93;;
82705;SDS011;72428;41.978;21.464;2024-03-06T07:13:03;30.35;;;17.33;;
82705;SDS011;72428;41.978;21.464;2024-03-06T07:15:31;29.45;;;15.50;;
82705;SDS011;72428;41.978;21.464;2024-03-06T07:17:57;27.17;;;15.65;;
82705;SDS011;72428;41.978;21.464;2024-03-06T07:20:23;34.58;;;17.25;;
82705;SDS011;72428;41.978;21.464;2024-03-06T07:22:49;31.23;;;16.98;;
82705;SDS011;72428;41.978;21.464;2024-03-06T07:25:16;32.15;;;18.00;;
82705;SDS011;72428;41.978;21.464;2024-03-06T07:27:42;34.50;;;20.58;;
82705;SDS011;72428;41.978;21.464;2024-03-06T07:30:08;29.25;;;16.30;;
82705;SDS011;72428;41.978;21.464;2024-03-06T07:32:34;34.22;;;20.25;;
82705;SDS011;72428;41.978;21.464;2024-03-06T07:35:00;33.83;;;18.08;;
82705;SDS011;72428;41.978;21.464;2024-03-06T07:37:26;29.98;;;17.95;;
82705;SDS011;72428;41.978;21.464;2024-03-06T07:39:52;28.38;;;18.35;;
82705;SDS011;72428;41.978;21.464;2024-03-06T07:42:18;35.10;;;17.23;;
82705;SDS011;72428;41.978;21.464;2024-03-06T07:44:46;33.05;;;16.48;;
82705;SDS011;72428;41.978;21.464;2024-03-06T07:47:12;30.17;;;17.80;;
82705;SDS011;72428;41.978;21.464;2024-03-06T07:49:39;36.67;;;17.02;;
82705;SDS011;72428;41.978;21.464;2024-03-06T07:52:05;26.98;;;16.35;;
82705;SDS011;72428;41.978;21.464;2024-03-06T07:54:34;22.90;;;13.20;;
82705;SDS011;72428;41.978;21.464;2024-03-06T07:57:01;31.45;;;16.98;;
82705;SDS011;72428;41.978;21.464;2024-03-06T07:59:27;38.47;;;22.15;;
82705;SDS011;72428;41.978;21.464;2024-03-06T08:01:53;32.50;;;19.33;;
82705;SDS011;72428;41.978;21.464;2024-03-06T08:04:20;33.10;;;19.80;;
82705;SDS011;72428;41.978;21.464;2024-03-06T08:06:47;33.97;;;17.42;;
82705;SDS011;72428;41.978;21.464;2024-03-06T08:09:15;29.05;;;15.57;;
82705;SDS011;72428;41.978;21.464;2024-03-06T08:11:42;31.33;;;16.88;;
82705;SDS011;72428;41.978;21.464;2024-03-06T08:14:08;29.20;;;16.63;;
82705;SDS011;72428;41.978;21.464;2024-03-06T08:16:34;28.75;;;14.88;;
82705;SDS011;72428;41.978;21.464;2024-03-06T08:19:02;37.53;;;18.95;;
82705;SDS011;72428;41.978;21.464;2024-03-06T08:21:28;33.60;;;16.67;;
82705;SDS011;72428;41.978;21.464;2024-03-06T08:23:54;30.02;;;15.65;;
82705;SDS011;72428;41.978;21.464;2024-03-06T08:26:21;28.52;;;16.63;;
82705;SDS011;72428;41.978;21.464;2024-03-06T08:28:48;31.05;;;17.48;;
82705;SDS011;72428;41.978;21.464;2024-03-06T08:31:14;30.23;;;17.42;;
82705;SDS011;72428;41.978;21.464;2024-03-06T08:33:40;29.77;;;15.82;;
82705;SDS011;72428;41.978;21.464;2024-03-06T08:36:06;27.63;;;15.02;;
82705;SDS011;72428;41.978;21.464;2024-03-06T08:38:32;28.27;;;15.15;;
82705;SDS011;72428;41.978;21.464;2024-03-06T08:40:58;25.77;;;15.25;;
82705;SDS011;72428;41.978;21.464;2024-03-06T08:43:25;27.77;;;14.38;;
82705;SDS011;72428;41.978;21.464;2024-03-06T08:45:53;28.02;;;15.90;;
82705;SDS011;72428;41.978;21.464;2024-03-06T08:48:20;27.13;;;13.85;;
82705;SDS011;72428;41.978;21.464;2024-03-06T08:50:47;24.80;;;14.43;;
82705;SDS011;72428;41.978;21.464;2024-03-06T08:53:13;29.27;;;14.95;;
82705;SDS011;72428;41.978;21.464;2024-03-06T08:55:40;26.50;;;15.02;;
82705;SDS011;72428;41.978;21.464;2024-03-06T08:58:06;29.48;;;17.80;;
82705;SDS011;72428;41.978;21.464;2024-03-06T09:00:34;29.52;;;15.93;;
82705;SDS011;72428;41.978;21.464;2024-03-06T09:03:00;24.40;;;12.05;;
82705;SDS011;72428;41.978;21.464;2024-03-06T09:05:27;21.88;;;12.25;;
82705;SDS011;72428;41.978;21.464;2024-03-06T09:07:53;24.52;;;14.13;;
82705;SDS011;72428;41.978;21.464;2024-03-06T09:10:19;26.40;;;14.43;;
82705;SDS011;72428;41.978;21.464;2024-03-06T09:12:45;24.95;;;14.48;;
82705;SDS011;72428;41.978;21.464;2024-03-06T09:15:12;27.58;;;14.82;;
82705;SDS011;72428;41.978;21.464;2024-03-06T09:17:38;23.35;;;14.95;;
82705;SDS011;72428;41.978;21.464;2024-03-06T09:20:05;22.38;;;13.68;;
82705;SDS011;72428;41.978;21.464;2024-03-06T09:22:38;21.85;;;14.43;;
82705;SDS011;72428;41.978;21.464;2024-03-06T09:25:05;28.83;;;14.73;;
82705;SDS011;72428;41.978;21.464;2024-03-06T09:27:31;25.23;;;15.50;;
82705;SDS011;72428;41.978;21.464;2024-03-06T09:29:58;27.50;;;14.65;;
82705;SDS011;72428;41.978;21.464;2024-03-06T09:32:24;28.40;;;15.55;;
82705;SDS011;72428;41.978;21.464;2024-03-06T09:34:51;22.73;;;13.38;;
82705;SDS011;72428;41.978;21.464;2024-03-06T09:37:18;29.23;;;15.50;;
82705;SDS011;72428;41.978;21.464;2024-03-06T09:39:44;28.40;;;16.55;;
82705;SDS011;72428;41.978;21.464;2024-03-06T09:42:14;32.38;;;17.35;;
82705;SDS011;72428;41.978;21.464;2024-03-06T09:44:40;29.25;;;15.82;;
82705;SDS011;72428;41.978;21.464;2024-03-06T09:47:06;29.95;;;16.98;;
82705;SDS011;72428;41.978;21.464;2024-03-06T09:49:33;27.42;;;16.17;;
82705;SDS011;72428;41.978;21.464;2024-03-06T09:52:00;30.42;;;16.60;;
82705;SDS011;72428;41.978;21.464;2024-03-06T09:54:29;29.27;;;17.13;;
82705;SDS011;72428;41.978;21.464;2024-03-06T09:56:55;28.48;;;17.48;;
82705;SDS011;72428;41.978;21.464;2024-03-06T09:59:24;28.25;;;16.55;;
82705;SDS011;72428;41.978;21.464;2024-03-06T10:01:53;32.83;;;17.17;;
82705;SDS011;72428;41.978;21.464;2024-03-06T10:04:23;31.98;;;17.30;;
82705;SDS011;72428;41.978;21.464;2024-03-06T10:06:50;31.35;;;15.10;;
82705;SDS011;72428;41.978;21.464;2024-03-06T10:09:16;28.60;;;16.25;;
82705;SDS011;72428;41.978;21.464;2024-03-06T10:11:42;29.80;;;17.05;;
82705;SDS011;72428;41.978;21.464;2024-03-06T10:14:09;55.92;;;33.05;;
82705;SDS011;72428;41.978;21.464;2024-03-06T10:16:38;37.22;;;18.25;;
82705;SDS011;72428;41.978;21.464;2024-03-06T10:19:17;31.85;;;17.95;;
82705;SDS011;72428;41.978;21.464;2024-03-06T10:21:43;27.35;;;16.15;;
82705;SDS011;72428;41.978;21.464;2024-03-06T10:24:10;32.60;;;15.40;;
82705;SDS011;72428;41.978;21.464;2024-03-06T10:26:36;26.05;;;14.75;;
82705;SDS011;72428;41.978;21.464;2024-03-06T10:29:02;23.08;;;12.45;;
82705;SDS011;72428;41.978;21.464;2024-03-06T10:31:28;25.23;;;13.88;;
82705;SDS011;72428;41.978;21.464;2024-03-06T10:33:55;22.98;;;13.80;;
82705;SDS011;72428;41.978;21.464;2024-03-06T10:36:21;26.83;;;14.00;;
82705;SDS011;72428;41.978;21.464;2024-03-06T10:38:48;23.10;;;13.30;;
82705;SDS011;72428;41.978;21.464;2024-03-06T10:41:15;20.92;;;11.70;;
82705;SDS011;72428;41.978;21.464;2024-03-06T10:43:43;23.77;;;13.07;;
82705;SDS011;72428;41.978;21.464;2024-03-06T10:46:11;23.27;;;13.52;;
82705;SDS011;72428;41.978;21.464;2024-03-06T10:48:38;24.10;;;13.95;;
82705;SDS011;72428;41.978;21.464;2024-03-06T10:51:05;25.45;;;15.35;;
82705;SDS011;72428;41.978;21.464;2024-03-06T10:53:32;23.40;;;13.27;;
82705;SDS011;72428;41.978;21.464;2024-03-06T10:56:00;24.35;;;14.82;;
82705;SDS011;72428;41.978;21.464;2024-03-06T10:58:27;23.48;;;13.45;;
82705;SDS011;72428;41.978;21.464;2024-03-06T11:00:54;21.40;;;13.75;;
82705;SDS011;72428;41.978;21.464;2024-03-06T11:03:23;23.58;;;14.15;;
82705;SDS011;72428;41.978;21.464;2024-03-06T11:05:49;24.05;;;12.75;;
82705;SDS011;72428;41.978;21.464;2024-03-06T11:08:16;24.42;;;13.55;;
82705;SDS011;72428;41.978;21.464;2024-03-06T11:10:43;22.67;;;12.43;;
82705;SDS011;72428;41.978;21.464;2024-03-06T11:13:25;21.80;;;12.60;;
82705;SDS011;72428;41.978;21.464;2024-03-06T11:15:53;19.42;;;11.48;;
82705;SDS011;72428;41.978;21.464;2024-03-06T11:23:32;22.38;;;12.40;;
82705;SDS011;72428;41.978;21.464;2024-03-06T11:28:29;24.45;;;14.52;;
82705;SDS011;72428;41.978;21.464;2024-03-06T11:30:56;23.00;;;12.82;;
82705;SDS011;72428;41.978;21.464;2024-03-06T11:33:23;21.08;;;12.15;;
82705;SDS011;72428;41.978;21.464;2024-03-06T11:38:37;19.40;;;12.80;;
82705;SDS011;72428;41.978;21.464;2024-03-06T11:41:04;21.40;;;11.63;;
82705;SDS011;72428;41.978;21.464;2024-03-06T11:43:33;19.83;;;11.05;;
82705;SDS011;72428;41.978;21.464;2024-03-06T11:46:08;14.95;;;9.60;;
82705;SDS011;72428;41.978;21.464;2024-03-06T11:48:37;21.13;;;11.57;;
82705;SDS011;72428;41.978;21.464;2024-03-06T11:51:03;22.38;;;11.73;;
82705;SDS011;72428;41.978;21.464;2024-03-06T11:53:30;18.30;;;10.35;;
82705;SDS011;72428;41.978;21.464;2024-03-06T11:55:58;14.32;;;8.15;;
82705;SDS011;72428;41.978;21.464;2024-03-06T11:58:24;18.08;;;9.77;;
82705;SDS011;72428;41.978;21.464;2024-03-06T12:00:51;18.33;;;11.13;;
82705;SDS011;72428;41.978;21.464;2024-03-06T12:03:17;15.93;;;11.50;;
82705;SDS011;72428;41.978;21.464;2024-03-06T12:05:44;15.23;;;8.80;;
82705;SDS011;72428;41.978;21.464;2024-03-06T12:08:11;16.00;;;9.57;;
82705;SDS011;72428;41.978;21.464;2024-03-06T12:10:38;18.55;;;10.02;;
82705;SDS011;72428;41.978;21.464;2024-03-06T12:13:04;17.90;;;10.55;;
82705;SDS011;72428;41.978;21.464;2024-03-06T12:15:30;13.32;;;7.95;;
82705;SDS011;72428;41.978;21.464;2024-03-06T12:17:56;18.42;;;10.50;;
82705;SDS011;72428;41.978;21.464;2024-03-06T12:20:23;20.02;;;11.60;;
82705;SDS011;72428;41.978;21.464;2024-03-06T12:22:54;16.55;;;8.50;;
82705;SDS011;72428;41.978;21.464;2024-03-06T12:25:24;17.65;;;8.60;;
82705;SDS011;72428;41.978;21.464;2024-03-06T12:27:51;16.15;;;9.20;;
82705;SDS011;72428;41.978;21.464;2024-03-06T12:30:18;10.70;;;7.32;;
82705;SDS011;72428;41.978;21.464;2024-03-06T12:32:44;12.25;;;8.02;;
82705;SDS011;72428;41.978;21.464;2024-03-06T12:35:11;14.10;;;6.25;;
82705;SDS011;72428;41.978;21.464;2024-03-06T12:37:37;11.82;;;6.82;;
82705;SDS011;72428;41.978;21.464;2024-03-06T12:40:03;14.02;;;6.85;;
82705;SDS011;72428;41.978;21.464;2024-03-06T12:42:30;13.00;;;6.03;;
82705;SDS011;72428;41.978;21.464;2024-03-06T12:44:56;6.95;;;4.60;;
82705;SDS011;72428;41.978;21.464;2024-03-06T12:47:22;8.82;;;4.90;;
82705;SDS011;72428;41.978;21.464;2024-03-06T12:49:48;11.60;;;5.70;;
82705;SDS011;72428;41.978;21.464;2024-03-06T12:52:16;8.65;;;4.75;;
82705;SDS011;72428;41.978;21.464;2024-03-06T12:54:42;12.00;;;5.13;;
82705;SDS011;72428;41.978;21.464;2024-03-06T12:57:08;9.38;;;4.47;;
82705;SDS011;72428;41.978;21.464;2024-03-06T12:59:34;9.70;;;5.18;;
82705;SDS011;72428;41.978;21.464;2024-03-06T13:02:00;13.13;;;5.57;;
82705;SDS011;72428;41.978;21.464;2024-03-06T13:04:26;13.48;;;7.50;;
82705;SDS011;72428;41.978;21.464;2024-03-06T13:06:52;10.13;;;5.53;;
82705;SDS011;72428;41.978;21.464;2024-03-06T13:09:18;11.45;;;5.35;;
82705;SDS011;72428;41.978;21.464;2024-03-06T13:11:44;10.52;;;4.30;;
82705;SDS011;72428;41.978;21.464;2024-03-06T13:14:10;10.93;;;4.78;;
82705;SDS011;72428;41.978;21.464;2024-03-06T13:16:37;8.20;;;3.75;;
82705;SDS011;72428;41.978;21.464;2024-03-06T13:19:03;12.30;;;4.55;;
82705;SDS011;72428;41.978;21.464;2024-03-06T13:21:29;8.52;;;4.60;;
82705;SDS011;72428;41.978;21.464;2024-03-06T13:23:55;11.85;;;5.53;;
82705;SDS011;72428;41.978;21.464;2024-03-06T13:26:21;9.05;;;4.82;;
82705;SDS011;72428;41.978;21.464;2024-03-06T13:28:47;12.85;;;5.32;;
82705;SDS011;72428;41.978;21.464;2024-03-06T13:31:14;10.15;;;4.72;;
82705;SDS011;72428;41.978;21.464;2024-03-06T13:33:40;8.90;;;4.63;;
82705;SDS011;72428;41.978;21.464;2024-03-06T13:36:06;8.10;;;5.22;;
82705;SDS011;72428;41.978;21.464;2024-03-06T13:38:33;9.10;;;5.20;;
82705;SDS011;72428;41.978;21.464;2024-03-06T13:40:59;10.27;;;5.60;;
82705;SDS011;72428;41.978;21.464;2024-03-06T13:43:27;10.02;;;6.32;;
82705;SDS011;72428;41.978;21.464;2024-03-06T13:45:53;10.88;;;4.95;;
82705;SDS011;72428;41.978;21.464;2024-03-06T13:48:20;8.90;;;5.65;;
82705;SDS011;72428;41.978;21.464;2024-03-06T13:50:47;11.88;;;6.63;;
82705;SDS011;72428;41.978;21.464;2024-03-06T13:53:14;11.73;;;6.47;;
82705;SDS011;72428;41.978;21.464;2024-03-06T13:55:40;11.65;;;6.13;;
82705;SDS011;72428;41.978;21.464;2024-03-06T13:58:07;10.77;;;6.28;;
82705;SDS011;72428;41.978;21.464;2024-03-06T14:00:33;13.40;;;6.32;;
82705;SDS011;72428;41.978;21.464;2024-03-06T14:03:02;12.70;;;6.57;;
82705;SDS011;72428;41.978;21.464;2024-03-06T14:05:29;13.85;;;6.10;;
82705;SDS011;72428;41.978;21.464;2024-03-06T14:07:55;8.77;;;5.82;;
82705;SDS011;72428;41.978;21.464;2024-03-06T14:10:21;14.80;;;7.80;;
82705;SDS011;72428;41.978;21.464;2024-03-06T14:12:49;13.63;;;7.95;;
82705;SDS011;72428;41.978;21.464;2024-03-06T14:15:20;19.90;;;9.00;;
82705;SDS011;72428;41.978;21.464;2024-03-06T14:17:47;18.38;;;7.22;;